Startpagina
METAR-TAF:

METAR-TAF

Vliegvelden :

Providencia, Colombia

breedte: 13-22N, lengte: 081-21W, hoogte: 6 m

Actueel weer

Dit bericht is 1 uur en het 5 minuten geleden gemaakt, om 23:00 UTC
Wind 4 kt uit het noordwesten, variërend tussen het zuidwesten en het noorden
Temperatuur 25°C
Vochtigheid 89%
Druk 1013 hPa
Zicht 10 km of meer
Gebroken wolken op 1700 ft

METAR: SKPV 232300Z 31004KT 230V350 9999 BKN017 25/23 A2992 REDZ

Tijdstip: 19:05 (00:05 UTC)


TAF: ontbreekt

Waarnemingen en weersverwachtingen van meer dan 4000 vliegvelden (METAR en TAF).

De beschikbare stations zijn de gele en rode punten op de kaart.

Ga met uw muis naar het station om de naam te zien.

Klik dan om waarnemingen en weersverwachtingen te zien.

kaart wijzigen: klik op de groene knoppen met een zwart kruis om in te zoomen, op de groene knop met een streepje om uit te zoomen of op de groene pijlen voor aangrenzende kaarten.


METAR-TAF: